Terminal Aerodrome Forecast
Issued by NWS Wakefield, VA

Home | Current Version | Previous Version | Text Only | Print | Product List | Glossary On
Versions: 1 2 3 4 5 6 7 8 9 10 11 12 13 14 15 16 17
000
FTUS41 KAKQ 212000 AAB
TAFSBY
TAF AMD
KSBY 212051Z 2121/2218 15009KT P6SM VCSH BKN050 OVC200
      TEMPO 2121/2123 2SM SHRA BKN025 OVC050
     FM220000 12004KT P6SM BKN050
     FM220300 12005KT 5SM HZ BKN200
     FM221500 32005KT P6SM SCT050 BKN200=

USA.gov is the U.S. government's official web portal to all federal, state and local government web resources and services.